Time;durP1;ratioP1;P1;durP2;ratioP2;P2;SDS_P1;SDS_P2;PMS_P1;PMS_P2;Temp;Humidity;BMP_temperature;BMP_pressure;BME280_temperature;BME280_humidity;BME280_pressure;Samples;Min_cycle;Max_cycle;Signal;HPM_P1;HPM_P2
2022/06/10 00:00:37;;;;;;;5.63;2.35;;;;;;;10.24;100.00;99294.25;5025368;28;20032;-72
2022/06/10 00:03:04;;;;;;;6.90;2.17;;;;;;;10.16;100.00;99286.22;5048041;28;20017;-71
2022/06/10 00:05:31;;;;;;;6.97;2.20;;;;;;;10.13;100.00;99297.41;5031691;28;20041;-72
2022/06/10 00:07:57;;;;;;;6.20;2.50;;;;;;;10.11;100.00;99294.06;5033610;28;20483;-72
2022/06/10 00:10:26;;;;;;;7.03;2.20;;;;;;;10.15;100.00;99289.13;5030861;28;20116;-72
2022/06/10 00:12:51;;;;;;;5.20;2.08;;;;;;;10.13;100.00;99296.59;5032567;28;20049;-71
2022/06/10 00:15:18;;;;;;;4.68;2.03;;;;;;;10.02;100.00;99293.34;5026683;28;20065;-72
2022/06/10 00:17:44;;;;;;;6.43;2.33;;;;;;;9.98;100.00;99289.34;5029428;28;20426;-71
2022/06/10 00:20:12;;;;;;;4.95;2.40;;;;;;;10.01;100.00;99302.47;5029133;28;20030;-72
2022/06/10 00:22:37;;;;;;;4.97;2.40;;;;;;;9.88;100.00;99281.50;5026133;28;20108;-71
2022/06/10 00:25:03;;;;;;;7.90;2.60;;;;;;;9.89;100.00;99293.16;5027993;28;20458;-72
2022/06/10 00:27:28;;;;;;;5.78;3.05;;;;;;;9.91;100.00;99276.75;5027713;28;20026;-72
2022/06/10 00:29:54;;;;;;;3.90;2.35;;;;;;;9.85;100.00;99279.19;5027079;28;20025;-71
2022/06/10 00:32:19;;;;;;;6.68;2.42;;;;;;;9.96;100.00;99296.78;5031587;28;20061;-72
2022/06/10 00:34:44;;;;;;;4.72;2.15;;;;;;;9.98;100.00;99285.78;5032381;28;20038;-71
2022/06/10 00:37:10;;;;;;;7.63;2.50;;;;;;;10.07;100.00;99303.59;5029572;28;20030;-72
2022/06/10 00:39:36;;;;;;;5.47;2.38;;;;;;;9.97;100.00;99292.22;5026264;28;20033;-72
2022/06/10 00:42:04;;;;;;;4.53;2.17;;;;;;;10.04;100.00;99299.41;5027002;28;20029;-72
2022/06/10 00:44:48;;;;;;;4.22;1.70;;;;;;;9.88;100.00;99305.84;5027601;28;20061;-72
2022/06/10 00:47:22;;;;;;;4.70;1.90;;;;;;;9.83;100.00;99310.97;5030815;28;20061;-72
2022/06/10 00:49:53;;;;;;;4.50;2.42;;;;;;;9.81;100.00;99282.44;5030115;28;20867;-72
2022/06/10 00:52:26;;;;;;;6.32;2.22;;;;;;;9.70;100.00;99286.44;5029060;28;20045;-71
2022/06/10 00:54:52;;;;;;;5.85;2.35;;;;;;;9.78;100.00;99294.47;5031566;28;20025;-72
2022/06/10 00:57:23;;;;;;;9.25;2.15;;;;;;;9.92;100.00;99300.06;5031874;28;20029;-72
2022/06/10 00:59:55;;;;;;;3.83;2.50;;;;;;;9.83;100.00;99299.31;5025685;28;20031;-72
2022/06/10 01:02:25;;;;;;;5.20;2.15;;;;;;;9.70;100.00;99299.97;5023113;28;20032;-72
2022/06/10 01:04:53;;;;;;;4.82;2.28;;;;;;;9.65;100.00;99310.47;5031311;28;20471;-71
2022/06/10 01:07:23;;;;;;;6.43;2.70;;;;;;;9.53;100.00;99285.78;5026668;28;20037;-72
2022/06/10 01:09:50;;;;;;;10.02;2.30;;;;;;;9.80;100.00;99300.53;5030601;28;20026;-72
2022/06/10 01:12:47;;;;;;;3.25;2.10;;;;;;;9.74;100.00;99313.94;5030451;28;20430;-72
2022/06/10 01:15:37;;;;;;;7.15;2.45;;;;;;;9.59;100.00;99281.53;5027964;28;20044;-72
2022/06/10 01:18:21;;;;;;;6.43;2.20;;;;;;;9.76;100.00;99311.88;5025144;28;20029;-72
2022/06/10 01:21:17;;;;;;;7.45;2.50;;;;;;;9.82;100.00;99311.13;5025241;28;20033;-72
2022/06/10 01:24:07;;;;;;;2.95;2.17;;;;;;;9.74;100.00;99320.16;5043166;28;20116;-72
2022/06/10 01:29:50;;;;;;;7.40;2.85;;;;;;;9.53;100.00;99318.19;5025698;28;20044;-72
2022/06/10 01:32:50;;;;;;;5.18;2.60;;;;;;;9.52;100.00;99324.63;5024840;28;20043;-72
2022/06/10 01:35:25;;;;;;;5.18;2.10;;;;;;;9.29;100.00;99300.34;5023052;28;20099;-72
2022/06/10 01:37:56;;;;;;;8.98;2.45;;;;;;;9.50;100.00;99318.56;5025161;28;20025;-73
2022/06/10 01:40:26;;;;;;;5.88;2.40;;;;;;;9.40;100.00;99313.41;5029486;28;20489;-72
2022/06/10 01:43:20;;;;;;;6.68;2.47;;;;;;;9.40;100.00;99312.56;5027403;28;20021;-72
2022/06/10 01:45:56;;;;;;;5.50;2.22;;;;;;;9.39;100.00;99322.53;5019237;28;20018;-72
2022/06/10 01:48:57;;;;;;;4.03;2.10;;;;;;;9.23;100.00;99311.06;5029998;28;20022;-72
2022/06/10 01:51:39;;;;;;;7.78;2.70;;;;;;;9.28;100.00;99322.16;5045259;22;20407;-75
2022/06/10 01:54:13;;;;;;;3.58;2.28;;;;;;;9.23;100.00;99330.78;5025591;28;20021;-74
2022/06/10 01:56:44;;;;;;;5.40;2.50;;;;;;;9.14;100.00;99321.06;5022979;28;20087;-74
2022/06/10 01:59:38;;;;;;;2.92;2.22;;;;;;;9.09;100.00;99318.06;5016410;28;20030;-75
2022/06/10 02:02:16;;;;;;;3.25;2.42;;;;;;;9.08;100.00;99324.50;5021896;28;20026;-73
2022/06/10 02:04:51;;;;;;;3.78;2.05;;;;;;;8.93;100.00;99316.34;5031086;28;20037;-74
2022/06/10 02:07:23;;;;;;;3.47;2.60;;;;;;;9.09;100.00;99309.97;5024033;28;20029;-72
2022/06/10 02:10:02;;;;;;;7.43;2.50;;;;;;;9.34;100.00;99334.91;5026799;28;20017;-70
2022/06/10 02:12:38;;;;;;;4.07;2.47;;;;;;;9.24;100.00;99331.63;5015038;28;20022;-72
2022/06/10 02:15:11;;;;;;;7.20;2.50;;;;;;;9.23;100.00;99328.09;5030421;28;20022;-71
2022/06/10 02:17:48;;;;;;;6.82;2.40;;;;;;;9.13;100.00;99338.31;5045685;28;20030;-74
2022/06/10 02:20:21;;;;;;;4.35;2.50;;;;;;;9.20;100.00;99332.00;5020052;28;20410;-72
2022/06/10 02:22:48;;;;;;;5.55;2.15;;;;;;;9.15;100.00;99317.38;5021608;28;20426;-70
2022/06/10 02:25:23;;;;;;;7.10;2.50;;;;;;;9.27;100.00;99337.50;5027680;28;20030;-73
2022/06/10 02:27:55;;;;;;;4.38;2.47;;;;;;;9.27;100.00;99345.59;5024806;28;20086;-74
2022/06/10 02:30:28;;;;;;;3.70;2.25;;;;;;;9.16;100.00;99343.34;5017771;28;20038;-73
2022/06/10 02:32:56;;;;;;;4.80;2.30;;;;;;;9.02;100.00;99336.88;5027418;28;20125;-73
2022/06/10 02:35:26;;;;;;;4.13;2.37;;;;;;;9.05;100.00;99362.66;5033688;28;20041;-73
2022/06/10 02:38:12;;;;;;;4.45;2.67;;;;;;;8.97;100.00;99356.28;5013155;28;20348;-74
2022/06/10 02:41:01;;;;;;;3.92;2.50;;;;;;;8.94;100.00;99358.53;5021496;28;20034;-73
2022/06/10 02:43:36;;;;;;;4.00;2.25;;;;;;;8.84;100.00;99364.13;5015081;28;20056;-73
2022/06/10 02:46:26;;;;;;;4.75;3.20;;;;;;;8.78;100.00;99359.47;5027408;28;20138;-73
2022/06/10 02:49:05;;;;;;;11.57;2.80;;;;;;;8.74;100.00;99367.06;5023978;28;20104;-73
2022/06/10 02:51:31;;;;;;;12.65;4.10;;;;;;;8.70;100.00;99354.97;5015420;28;20044;-73
2022/06/10 02:53:56;;;;;;;6.18;3.20;;;;;;;8.80;100.00;99370.91;5022196;28;20442;-73
2022/06/10 02:56:26;;;;;;;8.07;3.15;;;;;;;8.84;100.00;99372.25;5031637;28;20097;-72
2022/06/10 03:01:58;;;;;;;4.70;2.50;;;;;;;8.95;100.00;99366.41;5023950;28;20048;-73
2022/06/10 03:04:45;;;;;;;5.47;2.50;;;;;;;8.89;100.00;99380.63;5028537;28;20029;-73
2022/06/10 03:07:29;;;;;;;5.43;2.13;;;;;;;8.78;100.00;99381.06;5051118;28;20022;-73
2022/06/10 03:10:16;;;;;;;5.50;2.50;;;;;;;8.67;100.00;99385.00;5024973;28;20022;-73
2022/06/10 03:13:02;;;;;;;6.28;2.20;;;;;;;8.66;100.00;99390.56;5031199;28;20030;-73
2022/06/10 03:15:36;;;;;;;4.40;2.20;;;;;;;8.58;100.00;99374.41;5023738;28;20022;-73
2022/06/10 03:18:19;;;;;;;4.22;2.40;;;;;;;8.64;100.00;99387.19;5020182;28;20053;-73
2022/06/10 03:21:23;;;;;;;4.38;2.08;;;;;;;8.66;100.00;99391.38;5035689;28;20041;-73
2022/06/10 03:23:58;;;;;;;8.88;2.10;;;;;;;8.60;100.00;99377.78;5026996;28;20033;-73
2022/06/10 03:26:52;;;;;;;3.17;2.40;;;;;;;8.64;100.00;99382.63;5014320;28;20049;-73
2022/06/10 03:29:39;;;;;;;8.40;2.13;;;;;;;8.78;100.00;99400.78;5009700;28;20088;-73
2022/06/10 03:32:24;;;;;;;4.43;2.70;;;;;;;8.81;100.00;99404.13;5008129;28;20422;-73
2022/06/10 03:34:56;;;;;;;4.75;2.30;;;;;;;8.81;100.00;99404.97;5004692;28;20022;-73
2022/06/10 03:37:22;;;;;;;9.85;2.85;;;;;;;8.87;100.00;99398.03;5031850;28;20029;-73
2022/06/10 03:39:56;;;;;;;6.18;2.80;;;;;;;8.97;100.00;99415.66;5019030;28;20083;-73
2022/06/10 03:42:24;;;;;;;3.92;2.35;;;;;;;9.02;100.00;99419.69;5023131;28;20048;-73
2022/06/10 03:44:53;;;;;;;4.82;2.40;;;;;;;9.03;100.00;99414.09;5019166;28;20166;-73
2022/06/10 03:47:25;;;;;;;4.55;2.60;;;;;;;9.05;100.00;99413.94;5018449;28;20029;-73
2022/06/10 03:49:57;;;;;;;4.80;2.22;;;;;;;8.93;100.00;99392.78;5010745;28;20033;-73
2022/06/10 03:52:25;;;;;;;5.85;2.85;;;;;;;9.09;100.00;99417.94;5012513;28;20124;-73
2022/06/10 03:54:50;;;;;;;2.85;2.30;;;;;;;9.14;100.00;99419.13;5026241;28;20021;-77
2022/06/10 03:57:17;;;;;;;5.13;2.40;;;;;;;9.09;100.00;99410.72;5007934;28;20060;-75
2022/06/10 03:59:44;;;;;;;5.72;2.17;;;;;;;9.12;100.00;99406.81;5006243;28;20049;-75
2022/06/10 04:02:11;;;;;;;2.80;2.03;;;;;;;9.23;100.00;99416.34;5025570;28;20024;-72
2022/06/10 04:04:38;;;;;;;6.07;3.47;;;;;;;9.20;100.00;99423.78;5002936;28;20472;-72
2022/06/10 04:07:04;;;;;;;7.15;2.67;;;;;;;9.38;100.00;99428.06;5004434;28;20101;-73
2022/06/10 04:09:29;;;;;;;2.88;2.03;;;;;;;9.46;100.00;99424.44;5022328;28;20034;-73
2022/06/10 04:11:54;;;;;;;11.05;2.58;;;;;;;9.52;100.00;99440.78;5016456;28;20037;-74
2022/06/10 04:14:20;;;;;;;6.57;2.33;;;;;;;9.53;100.00;99430.81;5016013;28;20064;-74
2022/06/10 04:16:45;;;;;;;6.07;2.03;;;;;;;9.60;100.00;99431.75;5002189;28;20499;-73
2022/06/10 04:19:12;;;;;;;5.28;2.42;;;;;;;9.65;100.00;99450.97;5014486;28;20033;-77
2022/06/10 04:21:37;;;;;;;8.70;2.45;;;;;;;9.68;100.00;99428.97;5006404;28;20030;-75
2022/06/10 04:24:03;;;;;;;8.43;2.60;;;;;;;9.71;100.00;99417.81;5014821;28;20032;-74
2022/06/10 04:26:29;;;;;;;4.97;2.25;;;;;;;9.92;100.00;99429.78;5006612;28;20028;-73
2022/06/10 04:28:54;;;;;;;6.05;2.10;;;;;;;10.04;100.00;99439.97;5005561;28;20391;-74
2022/06/10 04:31:19;;;;;;;8.60;2.30;;;;;;;10.13;100.00;99421.78;5017234;28;20042;-75
2022/06/10 04:33:45;;;;;;;8.48;2.13;;;;;;;10.28;100.00;99440.78;5027977;28;20034;-74
2022/06/10 04:36:14;;;;;;;3.50;2.03;;;;;;;10.40;100.00;99442.00;5019465;28;20108;-74
2022/06/10 04:38:40;;;;;;;4.90;2.00;;;;;;;10.50;100.00;99434.41;5029665;28;20017;-74
2022/06/10 04:41:06;;;;;;;4.25;1.95;;;;;;;10.62;100.00;99442.91;5020321;28;20033;-71
2022/06/10 04:43:33;;;;;;;5.97;2.15;;;;;;;10.65;100.00;99431.69;5029349;28;20057;-72
2022/06/10 04:46:01;;;;;;;4.35;2.20;;;;;;;10.79;100.00;99431.88;5020483;28;20041;-70
2022/06/10 04:48:27;;;;;;;7.17;2.30;;;;;;;11.05;100.00;99447.59;5021146;28;20025;-73
2022/06/10 04:50:52;;;;;;;5.30;1.90;;;;;;;11.08;100.00;99439.94;5019977;28;20090;-70
2022/06/10 04:53:17;;;;;;;2.67;1.85;;;;;;;11.29;100.00;99451.81;5020926;28;20026;-69
2022/06/10 04:55:43;;;;;;;4.40;2.00;;;;;;;11.28;100.00;99442.03;5033407;28;20113;-68
2022/06/10 04:58:08;;;;;;;2.22;1.70;;;;;;;11.41;100.00;99450.28;5020873;28;20060;-66
2022/06/10 05:00:37;;;;;;;4.10;1.70;;;;;;;11.54;100.00;99458.53;5012430;28;20046;-70
2022/06/10 05:03:03;;;;;;;3.17;1.70;;;;;;;11.56;100.00;99450.22;5024234;28;20495;-75
2022/06/10 05:05:29;;;;;;;3.40;1.77;;;;;;;11.67;100.00;99446.16;5007493;28;20090;-74
2022/06/10 05:07:55;;;;;;;6.28;1.92;;;;;;;11.81;100.00;99450.66;5010175;28;20415;-75
2022/06/10 05:10:21;;;;;;;4.88;1.80;;;;;;;11.98;100.00;99451.25;5014676;28;20088;-73
2022/06/10 05:12:47;;;;;;;3.38;2.10;;;;;;;12.24;100.00;99453.31;5005031;28;20427;-74
2022/06/10 05:15:14;;;;;;;5.20;1.83;;;;;;;12.38;100.00;99455.06;5019695;28;20026;-71
2022/06/10 05:17:40;;;;;;;5.15;1.60;;;;;;;12.52;100.00;99455.16;5015793;28;20112;-75
2022/06/10 05:20:07;;;;;;;6.03;1.80;;;;;;;12.70;100.00;99458.19;5008464;28;20069;-74
2022/06/10 05:22:32;;;;;;;7.60;1.65;;;;;;;12.76;100.00;99451.97;5018302;28;20029;-76
2022/06/10 05:24:57;;;;;;;6.47;1.65;;;;;;;12.97;100.00;99463.72;5009570;28;20121;-69
2022/06/10 05:27:23;;;;;;;5.40;2.15;;;;;;;13.05;100.00;99458.16;5005262;28;20125;-70
2022/06/10 05:29:48;;;;;;;2.83;1.73;;;;;;;13.34;100.00;99476.88;5002891;28;20029;-70
2022/06/10 05:32:13;;;;;;;3.13;2.05;;;;;;;13.62;100.00;99485.91;5012378;28;20037;-71
2022/06/10 05:34:44;;;;;;;8.73;2.00;;;;;;;13.58;100.00;99480.06;5017177;28;20538;-70
2022/06/10 05:37:11;;;;;;;6.43;2.05;;;;;;;13.85;100.00;99477.38;5002975;28;20034;-70
2022/06/10 05:39:37;;;;;;;5.97;2.05;;;;;;;13.96;100.00;99469.44;5012004;28;20103;-73
2022/06/10 05:42:05;;;;;;;2.47;2.20;;;;;;;14.15;100.00;99465.03;5010095;28;20486;-74
2022/06/10 05:44:31;;;;;;;4.82;2.28;;;;;;;14.03;100.00;99478.41;5008841;28;20034;-73
2022/06/10 05:46:56;;;;;;;9.48;2.47;;;;;;;14.08;100.00;99475.06;5009333;28;20021;-71
2022/06/10 05:49:23;;;;;;;4.93;2.38;;;;;;;14.23;100.00;99486.59;5006769;28;20045;-70
2022/06/10 05:51:49;;;;;;;3.85;1.90;;;;;;;14.41;100.00;99487.84;5000923;28;20022;-70
2022/06/10 05:54:15;;;;;;;5.35;2.13;;;;;;;14.55;100.00;99494.97;5008906;28;20036;-69
2022/06/10 05:56:41;;;;;;;4.32;2.25;;;;;;;14.68;100.00;99480.47;4998655;28;20022;-70
2022/06/10 05:59:07;;;;;;;4.10;2.22;;;;;;;15.09;100.00;99473.81;5017476;28;20546;-71
2022/06/10 06:01:32;;;;;;;6.03;2.03;;;;;;;15.24;100.00;99487.19;5016120;28;20105;-75
2022/06/10 06:03:58;;;;;;;4.47;1.80;;;;;;;15.44;100.00;99489.81;5011356;28;20025;-76
2022/06/10 06:06:23;;;;;;;6.07;1.73;;;;;;;15.80;100.00;99483.75;5006152;28;20021;-72
2022/06/10 06:08:49;;;;;;;6.50;2.17;;;;;;;15.93;100.00;99483.66;5006009;28;20077;-74
2022/06/10 06:11:16;;;;;;;5.43;2.00;;;;;;;15.98;100.00;99486.56;5008937;28;20376;-75
2022/06/10 06:13:42;;;;;;;8.43;2.50;;;;;;;16.06;100.00;99490.06;5005733;28;20037;-75
2022/06/10 06:16:11;;;;;;;5.13;1.80;;;;;;;15.98;100.00;99478.38;5012067;28;20034;-69
2022/06/10 06:18:37;;;;;;;2.88;1.70;;;;;;;16.42;100.00;99492.88;5009802;28;20076;-69
2022/06/10 06:21:03;;;;;;;9.35;2.13;;;;;;;16.54;100.00;99497.63;5005587;28;20116;-75
2022/06/10 06:23:29;;;;;;;3.42;1.55;;;;;;;16.76;100.00;99487.09;5011591;28;20079;-76
2022/06/10 06:25:54;;;;;;;6.13;1.80;;;;;;;16.68;100.00;99487.38;5020956;28;20093;-76
2022/06/10 06:28:19;;;;;;;3.65;1.60;;;;;;;17.14;100.00;99506.03;5039896;28;20032;-69
2022/06/10 06:30:45;;;;;;;4.93;1.73;;;;;;;17.08;100.00;99494.13;5015966;28;20037;-72
2022/06/10 06:33:10;;;;;;;2.53;1.50;;;;;;;17.49;100.00;99502.63;5007016;28;20062;-72
2022/06/10 06:35:37;;;;;;;5.88;1.70;;;;;;;17.77;100.00;99501.22;5004620;28;20473;-75
2022/06/10 06:38:04;;;;;;;4.50;1.60;;;;;;;18.00;95.85;99504.03;5005871;28;20026;-74
2022/06/10 06:40:30;;;;;;;6.28;1.63;;;;;;;17.84;95.54;99494.59;5015372;28;20034;-74
2022/06/10 06:42:56;;;;;;;5.47;1.33;;;;;;;17.41;100.00;99501.06;5004377;28;20030;-72
2022/06/10 06:45:22;;;;;;;4.22;1.80;;;;;;;18.00;93.03;99500.44;5006285;28;20030;-66
2022/06/10 06:47:48;;;;;;;3.25;1.25;;;;;;;18.74;86.90;99500.88;5013637;28;20045;-72
2022/06/10 06:50:17;;;;;;;5.65;1.15;;;;;;;19.10;83.41;99498.91;5024620;28;20026;-70
2022/06/10 06:52:42;;;;;;;;;;;;;;;19.33;76.59;99498.84;5010610;28;20026;-74
2022/06/10 06:55:09;;;;;;;3.20;1.15;;;;;;;19.90;72.03;99503.53;5015075;28;20353;-72
2022/06/10 06:57:35;;;;;;;5.97;1.23;;;;;;;20.83;69.79;99500.38;5019444;28;20014;-70
2022/06/10 07:00:07;;;;;;;5.00;1.30;;;;;;;21.64;62.70;99501.44;5011849;28;20057;-73
2022/06/10 07:02:33;;;;;;;4.45;1.23;;;;;;;22.70;56.77;99496.28;5007973;28;20041;-71
2022/06/10 07:04:58;;;;;;;5.10;1.27;;;;;;;24.30;51.80;99502.09;5009127;28;20061;-70
2022/06/10 07:07:24;;;;;;;4.97;1.30;;;;;;;25.28;49.59;99500.88;5024325;28;20539;-72
2022/06/10 07:09:49;;;;;;;5.85;1.25;;;;;;;26.82;47.70;99505.34;5010903;28;20141;-71
2022/06/10 07:12:15;;;;;;;5.00;1.20;;;;;;;28.61;42.43;99489.81;5001757;28;20368;-69
2022/06/10 07:14:40;;;;;;;2.90;1.20;;;;;;;29.90;39.63;99497.22;5006752;28;20108;-70
2022/06/10 07:17:05;;;;;;;4.88;1.27;;;;;;;30.62;36.30;99492.66;5019828;28;20483;-69
2022/06/10 07:19:32;;;;;;;4.85;0.90;;;;;;;31.76;34.91;99494.75;5024855;28;20057;-73
2022/06/10 07:21:58;;;;;;;7.10;1.10;;;;;;;32.20;35.15;99491.97;5006983;28;20029;-72
2022/06/10 07:24:23;;;;;;;2.72;0.88;;;;;;;31.83;33.96;99499.84;5021494;28;20014;-75
2022/06/10 07:26:48;;;;;;;3.13;1.20;;;;;;;32.24;33.89;99501.38;5004124;28;20076;-72
2022/06/10 07:29:14;;;;;;;4.13;0.93;;;;;;;32.44;33.28;99499.88;5013209;28;20033;-71
2022/06/10 07:31:41;;;;;;;4.90;0.90;;;;;;;32.49;33.80;99503.34;5007465;28;20026;-71
2022/06/10 07:34:08;;;;;;;3.60;1.10;;;;;;;32.43;33.43;99496.22;5002589;28;20030;-75
2022/06/10 07:36:33;;;;;;;1.75;0.70;;;;;;;32.39;32.67;99495.25;5014061;28;20026;-74
2022/06/10 07:38:58;;;;;;;3.25;0.85;;;;;;;30.86;34.46;99489.53;5005819;28;20028;-72
2022/06/10 07:44:08;;;;;;;3.67;1.17;;;;;;;32.93;32.35;99487.22;5007780;28;20106;-75
2022/06/10 07:46:33;;;;;;;3.63;0.90;;;;;;;32.93;32.14;99477.97;5006334;28;20463;-73
2022/06/10 07:48:59;;;;;;;3.08;0.90;;;;;;;32.43;33.32;99476.63;5010685;28;20037;-70
2022/06/10 07:51:24;;;;;;;2.70;1.00;;;;;;;32.25;33.86;99483.41;5018616;28;20034;-75
2022/06/10 07:53:49;;;;;;;3.60;0.80;;;;;;;32.26;32.40;99480.28;5011576;28;20029;-74
2022/06/10 07:56:17;;;;;;;3.13;0.90;;;;;;;31.67;33.88;99475.13;5020368;28;20063;-76
2022/06/10 07:58:44;;;;;;;4.18;1.00;;;;;;;31.98;33.65;99479.81;5014227;28;20060;-76
2022/06/10 08:01:09;;;;;;;5.03;1.10;;;;;;;31.83;32.97;99477.47;5010404;28;20030;-75
2022/06/10 08:03:34;;;;;;;2.22;0.88;;;;;;;31.70;33.47;99479.25;5020930;28;20029;-75
2022/06/10 08:06:01;;;;;;;3.45;1.00;;;;;;;33.67;32.00;99470.19;5016566;28;20022;-75
2022/06/10 08:08:27;;;;;;;5.20;1.10;;;;;;;34.45;31.32;99469.50;5004734;28;20083;-76
2022/06/10 08:10:53;;;;;;;3.40;1.20;;;;;;;33.79;31.68;99461.84;5010832;28;20109;-71
2022/06/10 08:13:18;;;;;;;4.15;0.80;;;;;;;34.58;31.03;99459.97;5011505;28;20452;-74
2022/06/10 08:15:45;;;;;;;2.50;0.90;;;;;;;34.40;29.67;99473.38;5005829;28;20099;-73
2022/06/10 08:18:13;;;;;;;3.08;1.00;;;;;;;34.91;29.52;99467.53;4997542;28;20040;-72
2022/06/10 08:23:26;;;;;;;3.28;0.80;;;;;;;34.08;30.58;99468.56;5003362;28;20130;-73
2022/06/10 08:25:54;;;;;;;6.05;1.10;;;;;;;33.77;30.96;99473.44;4999227;28;20515;-68
2022/06/10 08:28:20;;;;;;;2.58;1.15;;;;;;;33.66;31.01;99468.56;4998595;28;20096;-70
2022/06/10 08:30:46;;;;;;;4.78;0.80;;;;;;;34.03;31.15;99470.41;5009841;28;20037;-69
2022/06/10 08:33:11;;;;;;;3.08;0.95;;;;;;;34.29;29.68;99468.53;5023651;28;20021;-70
2022/06/10 08:35:38;;;;;;;4.53;0.90;;;;;;;34.68;28.45;99465.16;5007737;28;20116;-72
2022/06/10 08:38:05;;;;;;;4.43;1.10;;;;;;;33.65;29.58;99475.34;5013111;28;20130;-71
2022/06/10 08:41:03;;;;;;;6.03;1.02;;;;;;;34.53;29.03;99465.78;5009570;28;20049;-72
2022/06/10 08:43:47;;;;;;;3.50;1.45;;;;;;;33.53;30.56;99471.25;5004675;28;20018;-72
2022/06/10 08:46:42;;;;;;;5.72;1.15;;;;;;;33.00;30.91;99474.66;5005041;28;20029;-70
2022/06/10 08:49:32;;;;;;;4.20;1.08;;;;;;;32.09;32.13;99471.88;5003138;28;20036;-67
2022/06/10 08:52:04;;;;;;;2.65;0.85;;;;;;;34.83;28.36;99465.66;5015289;28;20456;-70
2022/06/10 08:54:41;;;;;;;6.38;1.13;;;;;;;33.37;30.88;99475.81;5006026;28;20026;-71
2022/06/10 08:57:36;;;;;;;4.97;0.95;;;;;;;34.02;28.67;99465.13;5011273;28;20052;-74
2022/06/10 09:00:11;;;;;;;4.00;1.20;;;;;;;32.61;31.13;99469.03;5009008;28;20022;-74
2022/06/10 09:02:55;;;;;;;3.28;1.00;;;;;;;32.45;31.74;99465.09;5011236;28;20026;-71
2022/06/10 09:05:27;;;;;;;5.75;1.13;;;;;;;33.08;30.84;99471.84;5011917;28;20144;-70
2022/06/10 09:08:02;;;;;;;3.83;1.30;;;;;;;34.25;29.58;99468.41;5007004;28;20171;-75
2022/06/10 09:10:51;;;;;;;6.43;1.13;;;;;;;34.72;28.65;99467.28;5007055;28;20129;-72
2022/06/10 09:13:28;;;;;;;3.53;0.93;;;;;;;34.64;28.74;99469.84;5001642;28;20029;-74
2022/06/10 09:16:08;;;;;;;3.47;0.97;;;;;;;34.52;28.85;99469.78;5005210;28;20026;-71
2022/06/10 09:18:46;;;;;;;4.38;1.27;;;;;;;33.74;29.70;99457.25;5005580;28;20061;-69
2022/06/10 09:21:27;;;;;;;3.85;1.48;;;;;;;32.94;30.14;99466.44;5009877;28;20087;-71
2022/06/10 09:23:57;;;;;;;3.97;1.08;;;;;;;32.60;31.02;99466.56;5008985;28;20034;-71
2022/06/10 09:26:30;;;;;;;3.28;0.90;;;;;;;32.90;31.12;99465.44;5004567;28;20026;-69
2022/06/10 09:28:56;;;;;;;5.00;1.23;;;;;;;32.63;30.18;99466.72;5006769;28;20030;-71
2022/06/10 09:31:47;;;;;;;3.33;1.10;;;;;;;32.73;30.07;99463.56;5017882;28;20124;-68
2022/06/10 09:34:35;;;;;;;4.63;1.00;;;;;;;33.83;30.48;99463.63;5005903;28;20024;-69
2022/06/10 09:37:03;;;;;;;3.72;1.00;;;;;;;33.16;30.55;99468.16;5009161;28;20038;-69
2022/06/10 09:42:28;;;;;;;3.53;1.02;;;;;;;34.61;28.21;99464.91;5013848;28;20041;-70
2022/06/10 09:45:00;;;;;;;7.53;1.23;;;;;;;35.49;28.88;99471.06;5016986;28;20017;-64
2022/06/10 09:47:55;;;;;;;4.00;0.88;;;;;;;34.49;28.04;99456.44;5012682;28;20434;-68
2022/06/10 09:50:34;;;;;;;3.92;0.98;;;;;;;35.54;28.44;99468.00;5000815;28;20034;-69
2022/06/10 09:53:18;;;;;;;4.43;0.93;;;;;;;34.85;27.94;99463.31;5007689;28;20032;-71
2022/06/10 09:55:59;;;;;;;4.38;0.80;;;;;;;33.97;28.64;99463.34;4995924;28;20332;-70
2022/06/10 09:58:44;;;;;;;5.35;1.75;;;;;;;35.17;29.01;99463.59;5001051;28;20090;-68
2022/06/10 10:01:25;;;;;;;2.88;0.98;;;;;;;35.08;29.33;99456.09;5003304;28;20047;-70
2022/06/10 10:04:16;;;;;;;4.85;1.40;;;;;;;34.87;28.58;99455.34;5008283;28;20030;-67
2022/06/10 10:07:39;;;;;;;3.25;0.80;;;;;;;35.32;27.92;99457.25;4995177;28;20045;-66
2022/06/10 10:10:14;;;;;;;3.00;0.90;;;;;;;35.87;28.41;99452.09;4923699;29;20036;-68
2022/06/10 10:12:53;;;;;;;5.45;1.30;;;;;;;34.76;29.86;99442.91;5005009;28;20032;-67
2022/06/10 10:15:33;;;;;;;3.83;1.30;;;;;;;32.24;31.63;99451.78;4994670;28;20424;-67
2022/06/10 10:18:17;;;;;;;4.47;1.08;;;;;;;31.91;33.17;99443.06;4995189;28;20034;-67
2022/06/10 10:20:48;;;;;;;3.03;0.80;;;;;;;32.57;32.09;99437.25;4999137;28;20061;-68
2022/06/10 10:23:42;;;;;;;4.50;0.90;;;;;;;34.24;29.38;99433.88;4992784;28;20038;-68
2022/06/10 10:26:29;;;;;;;3.20;0.90;;;;;;;34.65;29.48;99434.94;5005658;28;20021;-68
2022/06/10 10:29:01;;;;;;;5.53;1.20;;;;;;;35.26;28.25;99438.97;4995993;28;20026;-68
2022/06/10 10:31:32;;;;;;;4.70;1.10;;;;;;;35.72;27.92;99419.91;4999654;28;20495;-66
2022/06/10 10:34:01;;;;;;;2.00;0.70;;;;;;;36.20;27.76;99432.97;4999775;28;20136;-69
2022/06/10 10:36:32;;;;;;;3.58;1.10;;;;;;;33.26;31.30;99433.31;5008193;28;20142;-69
2022/06/10 10:39:13;;;;;;;6.30;1.00;;;;;;;30.98;34.45;99430.25;5001845;28;20034;-66
2022/06/10 10:41:42;;;;;;;3.83;0.93;;;;;;;31.38;32.99;99433.00;5007649;28;20044;-66
2022/06/10 10:44:29;;;;;;;3.40;1.15;;;;;;;29.12;36.18;99409.19;5007889;28;20061;-67
2022/06/10 10:47:09;;;;;;;2.85;0.80;;;;;;;28.05;37.83;99440.63;5011926;28;20026;-68
2022/06/10 10:49:48;;;;;;;4.82;0.93;;;;;;;25.58;39.83;99425.06;5008354;28;20044;-67
2022/06/10 10:52:33;;;;;;;8.25;1.05;;;;;;;27.23;38.15;99441.84;5003828;28;20125;-67
2022/06/10 10:55:23;;;;;;;4.03;0.77;;;;;;;30.30;35.34;99422.00;5003316;28;20029;-67
2022/06/10 10:58:17;;;;;;;2.78;0.85;;;;;;;32.74;30.12;99430.75;5015591;28;20025;-70
2022/06/10 11:00:52;;;;;;;3.67;1.02;;;;;;;32.84;28.97;99416.34;5021356;28;20034;-69
2022/06/10 11:03:43;;;;;;;3.45;0.93;;;;;;;33.03;27.00;99435.59;5008547;28;20072;-69
2022/06/10 11:06:28;;;;;;;3.30;0.93;;;;;;;33.74;26.58;99409.53;5011129;28;20504;-69
2022/06/10 11:09:14;;;;;;;5.38;0.88;;;;;;;34.60;28.03;99425.91;4996486;28;20503;-65
2022/06/10 11:11:41;;;;;;;4.13;0.90;;;;;;;33.85;26.81;99423.16;4992984;28;20034;-71
2022/06/10 11:14:27;;;;;;;4.55;0.90;;;;;;;35.12;27.74;99428.06;5006317;28;20541;-68
2022/06/10 11:16:55;;;;;;;4.15;1.00;;;;;;;35.45;26.22;99424.25;5002125;28;20038;-70
2022/06/10 11:19:37;;;;;;;2.75;0.68;;;;;;;36.05;26.04;99418.81;5001210;28;20060;-71
2022/06/10 11:22:17;;;;;;;4.97;1.00;;;;;;;36.89;25.73;99417.88;5003693;28;20021;-69
2022/06/10 11:24:51;;;;;;;4.07;0.70;;;;;;;37.03;26.16;99404.97;5011839;28;20103;-67
2022/06/10 11:27:27;;;;;;;3.40;0.80;;;;;;;36.04;25.79;99418.00;5015417;28;20033;-68
2022/06/10 11:30:10;;;;;;;3.05;0.60;;;;;;;35.55;25.08;99413.38;5012859;28;20043;-68
2022/06/10 11:32:40;;;;;;;6.35;0.90;;;;;;;35.67;26.08;99414.53;5003890;28;20033;-69
2022/06/10 11:35:27;;;;;;;4.03;0.80;;;;;;;35.39;25.90;99406.81;5007393;28;20112;-70
2022/06/10 11:37:58;;;;;;;1.52;0.77;;;;;;;36.06;25.86;99403.56;5014425;28;20083;-71
2022/06/10 11:40:36;;;;;;;3.30;0.70;;;;;;;36.57;24.77;99398.16;5027994;28;20550;-71
2022/06/10 11:43:13;;;;;;;2.35;0.63;;;;;;;34.36;24.19;99407.00;5017482;28;20102;-67
2022/06/10 11:45:46;;;;;;;4.35;0.85;;;;;;;34.70;23.55;99400.16;5002583;28;20504;-68
2022/06/10 13:53:04;;;;;;;2.35;0.50;;;;;;;29.91;27.95;99309.16;5098893;27;20348;-64
2022/06/10 13:55:37;;;;;;;3.92;0.80;;;;;;;30.37;27.32;99304.31;5071359;28;20052;-67
2022/06/10 13:58:15;;;;;;;4.40;1.00;;;;;;;30.86;27.41;99305.13;5075357;28;20031;-67
2022/06/10 14:00:43;;;;;;;2.88;0.57;;;;;;;32.15;28.18;99296.16;5076150;28;20027;-67
2022/06/10 14:03:51;;;;;;;2.35;0.70;;;;;;;33.15;26.65;99291.88;5084071;28;20032;-67
2022/06/10 14:06:29;;;;;;;1.73;0.50;;;;;;;33.82;25.45;99303.97;5061724;28;20452;-67
2022/06/10 14:09:04;;;;;;;1.95;0.70;;;;;;;34.32;23.84;99300.09;5060144;28;20062;-65
2022/06/10 14:11:34;;;;;;;5.47;0.60;;;;;;;33.91;24.36;99296.28;5075340;28;20469;-65
2022/06/10 14:14:21;;;;;;;4.30;0.63;;;;;;;33.39;24.68;99291.97;5078665;28;20032;-65
2022/06/10 14:16:57;;;;;;;3.78;0.52;;;;;;;33.37;24.07;99294.28;5081604;28;20029;-66